createdAt,value
2019-02-26T00:01:23.460Z,9.33
2019-02-26T00:03:52.392Z,9.13
2019-02-26T00:06:24.886Z,9.14
2019-02-26T00:08:54.110Z,9.31
2019-02-26T00:11:26.363Z,9.34
2019-02-26T00:13:56.767Z,9.37
2019-02-26T00:16:25.528Z,9.44
2019-02-26T00:18:56.225Z,9.19
2019-02-26T00:21:26.413Z,8.93
2019-02-26T00:23:56.728Z,8.94
2019-02-26T00:26:25.934Z,9.01
2019-02-26T00:28:56.757Z,8.86
2019-02-26T00:31:28.156Z,8.85
2019-02-26T00:33:57.282Z,8.77
2019-02-26T00:36:27.187Z,8.72
2019-02-26T00:38:58.450Z,8.66
2019-02-26T00:41:29.062Z,8.99
2019-02-26T00:43:59.932Z,9.31
2019-02-26T00:46:32.439Z,9.01
2019-02-26T00:49:03.026Z,8.93
2019-02-26T00:51:32.309Z,8.72
2019-02-26T00:54:02.006Z,8.93
2019-02-26T00:56:34.048Z,9.06
2019-02-26T00:59:03.462Z,8.96
2019-02-26T01:01:32.686Z,8.67
2019-02-26T01:04:01.933Z,8.65
2019-02-26T01:06:33.434Z,8.66
2019-02-26T01:09:04.129Z,8.68
2019-02-26T01:11:33.102Z,8.85
2019-02-26T01:14:02.367Z,8.86
2019-02-26T01:16:31.602Z,8.89
2019-02-26T01:19:00.821Z,8.91
2019-02-26T01:21:31.153Z,8.60
2019-02-26T01:24:01.733Z,8.44
2019-02-26T01:26:31.997Z,8.63
2019-02-26T01:29:01.281Z,8.66
2019-02-26T01:31:32.095Z,8.42
2019-02-26T01:34:01.451Z,8.32
2019-02-26T01:36:30.686Z,8.29
2019-02-26T01:38:59.960Z,8.29
2019-02-26T01:41:29.195Z,8.36
2019-02-26T01:43:58.424Z,8.28
2019-02-26T01:46:27.670Z,8.27
2019-02-26T01:48:57.558Z,8.05
2019-02-26T01:51:28.631Z,8.09
2019-02-26T01:53:57.972Z,7.87
2019-02-26T01:56:27.219Z,7.60
2019-02-26T01:58:59.327Z,7.50
2019-02-26T02:01:27.395Z,7.55
2019-02-26T02:03:56.599Z,7.48
2019-02-26T02:06:25.848Z,7.51
2019-02-26T02:08:55.802Z,7.76
2019-02-26T02:11:28.196Z,7.66
2019-02-26T02:13:55.968Z,7.67
2019-02-26T02:16:28.001Z,7.64
2019-02-26T02:18:58.172Z,7.60
2019-02-26T02:21:30.445Z,7.69
2019-02-26T02:23:58.101Z,7.65
2019-02-26T02:26:27.359Z,7.54
2019-02-26T02:28:56.593Z,7.80
2019-02-26T02:31:30.319Z,7.76
2019-02-26T02:33:56.775Z,7.73
2019-02-26T02:36:26.574Z,8.09
2019-02-26T02:38:56.011Z,7.88
2019-02-26T02:41:25.208Z,7.60
2019-02-26T02:43:54.415Z,7.54
2019-02-26T02:46:23.665Z,7.51
2019-02-26T02:48:52.918Z,7.80
2019-02-26T02:51:22.151Z,7.47
2019-02-26T02:53:54.155Z,7.59
2019-02-26T02:56:22.343Z,7.56
2019-02-26T02:58:51.765Z,7.60
2019-02-26T03:01:22.955Z,7.37
2019-02-26T03:03:53.794Z,7.47
2019-02-26T03:06:24.223Z,7.76
2019-02-26T03:08:53.948Z,7.73
2019-02-26T03:11:23.302Z,7.72
2019-02-26T03:13:53.841Z,7.70
2019-02-26T03:16:25.077Z,7.67
2019-02-26T03:18:54.134Z,7.72
2019-02-26T03:21:24.822Z,7.55
2019-02-26T03:23:54.369Z,7.58
2019-02-26T03:26:25.864Z,7.28
2019-02-26T03:28:54.609Z,7.40
2019-02-26T03:31:28.800Z,7.59
2019-02-26T03:34:00.083Z,7.59
2019-02-26T03:36:25.756Z,7.12
2019-02-26T03:38:57.271Z,7.26
2019-02-26T03:41:28.309Z,7.46
2019-02-26T03:43:58.473Z,7.17
2019-02-26T03:46:27.856Z,7.30
2019-02-26T03:48:57.092Z,7.36
2019-02-26T03:51:26.322Z,7.25
2019-02-26T03:53:55.548Z,7.37
2019-02-26T03:56:24.873Z,7.44
2019-02-26T03:58:57.074Z,7.36
2019-02-26T04:01:25.127Z,7.30
2019-02-26T04:03:55.106Z,7.44
2019-02-26T04:06:25.312Z,7.47
2019-02-26T04:08:55.942Z,7.14
2019-02-26T04:11:27.686Z,7.33
2019-02-26T04:13:56.739Z,7.43
2019-02-26T04:16:26.065Z,7.36
2019-02-26T04:18:55.277Z,7.13
2019-02-26T04:21:25.971Z,7.03
2019-02-26T04:23:55.208Z,6.91
2019-02-26T04:27:11.748Z,6.94
2019-02-26T04:30:06.310Z,7.10
2019-02-26T04:33:20.270Z,7.00
2019-02-26T04:36:16.889Z,7.12
2019-02-26T04:39:16.306Z,7.08
2019-02-26T04:41:57.956Z,7.16
2019-02-26T04:45:10.647Z,7.08
2019-02-26T04:47:40.929Z,7.13
2019-02-26T04:50:10.185Z,7.06
2019-02-26T04:52:41.224Z,6.87
2019-02-26T04:55:10.365Z,6.70
2019-02-26T04:57:42.416Z,6.90
2019-02-26T05:00:10.822Z,6.72
2019-02-26T05:02:40.036Z,6.71
2019-02-26T05:05:09.365Z,6.69
2019-02-26T05:07:41.332Z,6.78
2019-02-26T05:10:09.669Z,6.73
2019-02-26T05:12:40.177Z,6.80
2019-02-26T05:15:13.965Z,7.03
2019-02-26T05:17:40.472Z,7.07
2019-02-26T05:20:12.978Z,7.08
2019-02-26T05:22:40.766Z,7.21
2019-02-26T05:25:13.991Z,6.83
2019-02-26T05:27:42.825Z,6.98
2019-02-26T05:30:13.905Z,7.12
2019-02-26T05:32:42.972Z,7.08
2019-02-26T05:35:14.497Z,6.77
2019-02-26T05:37:43.198Z,6.60
2019-02-26T05:40:15.325Z,7.00
2019-02-26T05:42:43.410Z,6.92
2019-02-26T05:45:12.689Z,6.96
2019-02-26T05:47:43.047Z,7.07
2019-02-26T05:50:16.176Z,7.19
2019-02-26T05:52:43.825Z,6.79
2019-02-26T05:55:14.600Z,6.82
2019-02-26T05:57:44.042Z,6.85
2019-02-26T06:00:18.234Z,6.69
2019-02-26T06:02:48.537Z,6.42
2019-02-26T06:05:18.377Z,6.45
2019-02-26T06:07:47.569Z,6.68
2019-02-26T06:10:18.889Z,6.61
2019-02-26T06:12:47.831Z,6.47
2019-02-26T06:15:17.054Z,6.38
2019-02-26T06:17:48.120Z,6.61
2019-02-26T06:20:19.681Z,6.34
2019-02-26T06:22:48.915Z,6.37
2019-02-26T06:25:23.651Z,6.27
2019-02-26T06:27:49.130Z,6.39
2019-02-26T06:30:18.527Z,6.31
2019-02-26T06:32:47.794Z,6.43
2019-02-26T06:35:19.397Z,6.45
2019-02-26T06:37:48.146Z,6.41
2019-02-26T06:40:17.435Z,6.23
2019-02-26T06:42:46.702Z,6.38
2019-02-26T06:45:16.797Z,6.27
2019-02-26T06:47:48.606Z,6.55
2019-02-26T06:50:18.815Z,6.76
2019-02-26T06:52:50.578Z,6.73
2019-02-26T06:55:19.308Z,6.60
2019-02-26T06:57:50.914Z,6.69
2019-02-26T07:00:23.849Z,6.80
2019-02-26T07:02:50.526Z,6.91
2019-02-26T07:05:23.863Z,6.78
2019-02-26T07:07:54.175Z,7.17
2019-02-26T07:10:26.014Z,7.24
2019-02-26T07:12:52.655Z,7.32
2019-02-26T07:15:21.894Z,7.26
2019-02-26T07:17:51.140Z,7.29
2019-02-26T07:20:20.367Z,7.22
2019-02-26T07:22:51.632Z,7.23
2019-02-26T07:25:20.623Z,7.35
2019-02-26T07:27:51.384Z,7.62
2019-02-26T07:30:20.871Z,7.78
2019-02-26T07:32:50.145Z,7.79
2019-02-26T07:35:19.401Z,7.80
2019-02-26T07:37:48.720Z,8.02
2019-02-26T07:40:18.706Z,8.04
2019-02-26T07:42:49.225Z,8.08
2019-02-26T07:45:21.907Z,8.77
2019-02-26T07:47:51.458Z,9.05
2019-02-26T07:50:20.632Z,9.09
2019-02-26T07:52:52.040Z,9.40
2019-02-26T07:55:20.853Z,8.98
2019-02-26T07:57:51.232Z,9.29
2019-02-26T08:00:22.299Z,9.03
2019-02-26T08:02:54.015Z,9.30
2019-02-26T08:05:25.724Z,9.66
2019-02-26T08:07:56.689Z,10.09
2019-02-26T08:10:25.912Z,10.18
2019-02-26T08:12:56.625Z,10.38
2019-02-26T08:15:27.988Z,10.27
2019-02-26T08:17:58.449Z,10.32
2019-02-26T08:20:30.222Z,10.51
2019-02-26T08:23:01.315Z,10.48
2019-02-26T08:25:30.344Z,10.54
2019-02-26T08:28:01.324Z,10.52
2019-02-26T08:30:30.663Z,10.40
2019-02-26T08:33:04.162Z,10.71
2019-02-26T08:35:30.909Z,11.05
2019-02-26T08:38:00.178Z,11.09
2019-02-26T08:40:29.460Z,10.97
2019-02-26T08:42:58.687Z,10.92
2019-02-26T08:45:28.138Z,11.37
2019-02-26T08:47:57.365Z,11.53
2019-02-26T08:50:30.688Z,11.92
2019-02-26T08:52:58.465Z,12.10
2019-02-26T08:55:27.854Z,12.03
2019-02-26T08:57:57.118Z,12.26
2019-02-26T09:00:26.390Z,12.70
2019-02-26T09:02:56.649Z,12.81
2019-02-26T09:05:29.242Z,12.36
2019-02-26T09:07:57.505Z,12.40
2019-02-26T09:10:26.774Z,12.69
2019-02-26T09:12:56.015Z,12.84
2019-02-26T09:15:25.301Z,12.70
2019-02-26T09:17:54.607Z,12.89
2019-02-26T09:20:23.873Z,13.25
2019-02-26T09:22:54.579Z,13.38
2019-02-26T09:25:26.117Z,13.15
2019-02-26T09:27:55.086Z,13.19
2019-02-26T09:30:24.357Z,13.63
2019-02-26T09:32:53.648Z,13.62
2019-02-26T09:35:26.887Z,14.04
2019-02-26T09:37:56.383Z,14.33
2019-02-26T09:40:26.609Z,14.28
2019-02-26T09:42:58.143Z,14.37
2019-02-26T09:45:30.012Z,14.66
2019-02-26T09:47:58.316Z,14.73
2019-02-26T09:50:27.590Z,14.88
2019-02-26T09:52:59.157Z,15.10
2019-02-26T09:55:29.614Z,15.29
2019-02-26T09:57:58.871Z,15.09
2019-02-26T10:00:29.525Z,15.33
2019-02-26T10:02:58.983Z,15.36
2019-02-26T10:05:28.253Z,15.16
2019-02-26T10:07:59.999Z,15.61
2019-02-26T10:10:31.092Z,15.68
2019-02-26T10:13:02.042Z,15.85
2019-02-26T10:15:32.359Z,15.66
2019-02-26T10:18:04.025Z,15.91
2019-02-26T10:20:32.935Z,16.23
2019-02-26T10:23:04.251Z,16.08
2019-02-26T10:25:34.944Z,15.92
2019-02-26T10:28:08.740Z,16.25
2019-02-26T10:30:38.291Z,16.51
2019-02-26T10:33:08.351Z,16.73
2019-02-26T10:35:39.692Z,16.77
2019-02-26T10:38:11.520Z,16.93
2019-02-26T10:40:50.626Z,16.91
2019-02-26T10:43:10.545Z,16.97
2019-02-26T10:45:42.451Z,17.09
2019-02-26T10:48:10.833Z,17.27
2019-02-26T10:50:42.521Z,17.38
2019-02-26T10:53:13.785Z,17.19
2019-02-26T10:55:42.310Z,17.34
2019-02-26T10:58:13.209Z,17.40
2019-02-26T11:00:43.242Z,17.48
2019-02-26T11:03:14.854Z,17.84
2019-02-26T11:05:45.222Z,17.74
2019-02-26T11:08:14.525Z,17.73
2019-02-26T11:10:44.905Z,17.72
2019-02-26T11:13:15.880Z,17.94
2019-02-26T11:15:48.250Z,17.71
2019-02-26T11:18:18.042Z,17.75
2019-02-26T11:20:50.156Z,17.92
2019-02-26T11:23:18.781Z,18.16
2019-02-26T11:25:48.024Z,18.04
2019-02-26T11:28:17.270Z,18.19
2019-02-26T11:30:49.039Z,18.06
2019-02-26T11:33:17.588Z,17.95
2019-02-26T11:35:48.905Z,18.35
2019-02-26T11:38:19.510Z,18.60
2019-02-26T11:40:48.782Z,18.38
2019-02-26T11:43:22.563Z,18.36
2019-02-26T11:45:49.131Z,18.49
2019-02-26T11:48:20.658Z,18.40
2019-02-26T11:50:49.402Z,18.74
2019-02-26T11:53:18.814Z,18.95
2019-02-26T11:55:51.378Z,18.93
2019-02-26T11:58:21.814Z,19.06
2019-02-26T12:00:52.634Z,19.22
2019-02-26T12:03:24.894Z,19.28
2019-02-26T12:05:54.200Z,19.15
2019-02-26T12:08:25.749Z,19.32
2019-02-26T12:10:58.010Z,19.33
2019-02-26T12:13:27.720Z,19.40
2019-02-26T12:15:57.074Z,19.69
2019-02-26T12:18:26.318Z,19.26
2019-02-26T12:20:55.568Z,19.55
2019-02-26T12:23:24.786Z,19.81
2019-02-26T12:25:55.512Z,19.57
2019-02-26T12:28:26.049Z,19.68
2019-02-26T12:30:58.398Z,19.65
2019-02-26T12:33:27.070Z,19.55
2019-02-26T12:35:59.000Z,20.06
2019-02-26T12:38:27.264Z,19.72
2019-02-26T12:40:56.568Z,20.12
2019-02-26T12:43:25.829Z,20.10
2019-02-26T12:45:56.606Z,20.20
2019-02-26T12:48:26.077Z,20.20
2019-02-26T12:50:57.763Z,19.91
2019-02-26T12:53:26.321Z,20.43
2019-02-26T12:55:56.635Z,20.36
2019-02-26T12:58:27.879Z,20.40
2019-02-26T13:00:57.315Z,20.24
2019-02-26T13:03:26.517Z,20.45
2019-02-26T13:05:55.773Z,20.53
2019-02-26T13:08:25.159Z,20.62
2019-02-26T13:10:57.779Z,20.69
2019-02-26T13:13:25.450Z,20.71
2019-02-26T13:15:54.724Z,21.06
2019-02-26T13:18:23.961Z,20.98
2019-02-26T13:20:59.469Z,20.80
2019-02-26T13:23:24.165Z,20.76
2019-02-26T13:25:53.457Z,20.77
2019-02-26T13:28:29.276Z,20.85
2019-02-26T13:30:53.725Z,21.08
2019-02-26T13:33:27.506Z,20.68
2019-02-26T13:36:00.422Z,21.00
2019-02-26T13:38:34.003Z,20.68
2019-02-26T13:41:19.914Z,20.79
2019-02-26T13:43:28.625Z,20.51
2019-02-26T13:45:57.971Z,20.72
2019-02-26T13:48:27.276Z,20.84
2019-02-26T13:50:56.741Z,20.72
2019-02-26T13:53:26.022Z,20.61
2019-02-26T13:55:55.249Z,20.91
2019-02-26T13:58:24.571Z,20.80
2019-02-26T14:00:53.813Z,20.86
2019-02-26T14:03:23.170Z,21.04
2019-02-26T14:05:52.407Z,20.88
2019-02-26T14:08:21.684Z,21.10
2019-02-26T14:10:50.974Z,21.01
2019-02-26T14:13:20.429Z,21.01
2019-02-26T14:15:49.719Z,20.88
2019-02-26T14:18:19.043Z,20.81
2019-02-26T14:20:48.282Z,21.08
2019-02-26T14:23:17.637Z,21.10
2019-02-26T14:25:46.963Z,20.84
2019-02-26T14:28:16.220Z,21.05
2019-02-26T14:30:45.528Z,21.19
2019-02-26T14:33:14.918Z,21.12
2019-02-26T14:35:44.173Z,21.15
2019-02-26T14:38:13.481Z,21.10
2019-02-26T14:40:42.762Z,20.65
2019-02-26T14:46:49.586Z,21.19
2019-02-26T14:49:19.076Z,21.20
2019-02-26T14:51:48.335Z,21.18
2019-02-26T14:54:17.747Z,21.21
2019-02-26T14:56:47.045Z,21.26
2019-02-26T14:59:16.389Z,21.15
2019-02-26T15:01:45.728Z,21.03
2019-02-26T15:04:14.939Z,21.04
2019-02-26T15:06:44.292Z,20.66
2019-02-26T15:09:13.524Z,20.79
2019-02-26T15:11:42.808Z,20.96
2019-02-26T15:14:12.108Z,21.10
2019-02-26T15:16:41.345Z,21.29
2019-02-26T15:19:10.602Z,21.08
2019-02-26T15:21:39.942Z,20.84
2019-02-26T15:24:09.432Z,20.88
2019-02-26T15:26:38.737Z,20.92
2019-02-26T15:29:07.987Z,20.90
2019-02-26T15:31:37.317Z,20.72
2019-02-26T15:34:06.616Z,20.79
2019-02-26T15:36:36.089Z,20.81
2019-02-26T15:39:06.471Z,20.84
2019-02-26T15:41:35.746Z,20.77
2019-02-26T15:44:05.070Z,20.73
2019-02-26T15:46:37.783Z,20.70
2019-02-26T15:49:07.675Z,20.77
2019-02-26T15:51:37.065Z,20.71
2019-02-26T15:54:06.297Z,20.73
2019-02-26T15:56:35.649Z,20.55
2019-02-26T15:59:05.307Z,20.39
2019-02-26T16:01:34.584Z,20.39
2019-02-26T16:04:03.880Z,20.30
2019-02-26T16:06:33.178Z,20.39
2019-02-26T16:09:02.497Z,20.30
2019-02-26T16:11:31.844Z,20.24
2019-02-26T16:14:01.216Z,20.54
2019-02-26T16:16:30.508Z,20.31
2019-02-26T16:19:00.731Z,20.17
2019-02-26T16:21:30.500Z,20.10
2019-02-26T16:23:59.822Z,19.95
2019-02-26T16:26:29.102Z,19.97
2019-02-26T16:29:00.918Z,19.89
2019-02-26T16:31:29.937Z,19.66
2019-02-26T16:33:59.938Z,19.74
2019-02-26T16:36:31.724Z,19.59
2019-02-26T16:39:00.178Z,19.43
2019-02-26T16:41:29.456Z,19.41
2019-02-26T16:43:58.738Z,19.21
2019-02-26T16:46:28.059Z,19.18
2019-02-26T16:48:57.330Z,19.10
2019-02-26T16:51:26.656Z,18.96
2019-02-26T16:53:55.967Z,18.94
2019-02-26T16:56:25.223Z,18.84
2019-02-26T16:58:54.710Z,18.82
2019-02-26T17:01:24.097Z,18.77
2019-02-26T17:03:53.386Z,18.48
2019-02-26T17:06:22.701Z,18.53
2019-02-26T17:08:51.970Z,18.63
2019-02-26T17:11:21.446Z,18.52
2019-02-26T17:13:50.691Z,18.46
2019-02-26T17:16:20.146Z,18.38
2019-02-26T17:18:49.535Z,18.55
2019-02-26T17:21:18.834Z,18.28
2019-02-26T17:23:48.271Z,18.12
2019-02-26T17:26:17.570Z,17.97
2019-02-26T17:28:46.920Z,17.97
2019-02-26T17:31:16.276Z,17.92
2019-02-26T17:33:46.729Z,17.71
2019-02-26T17:36:16.486Z,17.67
2019-02-26T17:38:45.737Z,17.48
2019-02-26T17:41:15.025Z,17.10
2019-02-26T17:43:44.290Z,17.11
2019-02-26T17:46:13.541Z,16.99
2019-02-26T17:48:43.708Z,16.93
2019-02-26T17:51:13.157Z,16.93
2019-02-26T17:53:42.409Z,16.85
2019-02-26T17:56:11.795Z,16.68
2019-02-26T17:58:41.720Z,16.51
2019-02-26T18:01:12.096Z,16.51
2019-02-26T18:03:44.576Z,16.53
2019-02-26T18:06:13.162Z,16.52
2019-02-26T18:08:42.452Z,16.48
2019-02-26T18:11:11.730Z,16.60
2019-02-26T18:13:41.079Z,16.32
2019-02-26T18:16:10.335Z,16.38
2019-02-26T18:18:42.746Z,16.18
2019-02-26T18:21:11.101Z,15.99
2019-02-26T18:23:40.384Z,15.93
2019-02-26T18:26:09.669Z,15.82
2019-02-26T18:28:38.973Z,15.66
2019-02-26T18:31:08.350Z,15.51
2019-02-26T18:33:37.939Z,15.31
2019-02-26T18:36:07.208Z,15.21
2019-02-26T18:38:36.490Z,15.20
2019-02-26T18:41:05.808Z,15.19
2019-02-26T18:43:35.073Z,15.03
2019-02-26T18:46:04.403Z,14.95
2019-02-26T18:48:33.684Z,14.88
2019-02-26T18:51:03.056Z,14.98
2019-02-26T18:53:32.341Z,14.86
2019-02-26T18:56:03.995Z,14.86
2019-02-26T18:58:32.665Z,14.71
2019-02-26T19:01:01.922Z,14.77
2019-02-26T19:03:31.201Z,14.58
2019-02-26T19:06:03.659Z,14.73
2019-02-26T19:08:34.625Z,14.60
2019-02-26T19:11:04.221Z,14.47
2019-02-26T19:13:35.621Z,14.34
2019-02-26T19:16:04.750Z,14.21
2019-02-26T19:18:35.756Z,14.18
2019-02-26T19:21:05.301Z,14.08
2019-02-26T19:23:34.607Z,14.00
2019-02-26T19:26:03.945Z,13.88
2019-02-26T19:28:37.665Z,13.96
2019-02-26T19:31:09.343Z,13.94
2019-02-26T19:33:38.227Z,13.89
2019-02-26T19:36:07.641Z,13.70
2019-02-26T19:38:36.986Z,13.59
2019-02-26T19:41:12.375Z,13.47
2019-02-26T19:43:40.324Z,13.53
2019-02-26T19:46:10.596Z,14.76
2019-02-26T19:48:40.305Z,14.67
2019-02-26T19:51:09.658Z,14.76
2019-02-26T19:53:38.955Z,14.59
2019-02-26T19:56:08.290Z,14.45
2019-02-26T19:58:40.620Z,14.45
2019-02-26T20:01:08.698Z,14.50
2019-02-26T20:03:40.212Z,14.42
2019-02-26T20:06:09.345Z,14.19
2019-02-26T20:08:38.755Z,14.28
2019-02-26T20:11:08.136Z,13.98
2019-02-26T20:13:42.079Z,13.76
2019-02-26T20:16:08.623Z,13.71
2019-02-26T20:18:37.977Z,13.55
2019-02-26T20:21:07.319Z,13.31
2019-02-26T20:23:36.691Z,13.28
2019-02-26T20:26:06.464Z,13.19
2019-02-26T20:28:35.999Z,13.21
2019-02-26T20:31:05.384Z,13.00
2019-02-26T20:33:34.778Z,12.80
2019-02-26T20:36:04.096Z,12.85
2019-02-26T20:38:35.293Z,12.78
2019-02-26T20:41:04.575Z,12.83
2019-02-26T20:43:36.389Z,12.67
2019-02-26T20:46:04.915Z,12.45
2019-02-26T20:48:36.552Z,12.49
2019-02-26T20:51:05.394Z,12.47
2019-02-26T20:53:36.634Z,12.44
2019-02-26T20:56:05.914Z,12.25
2019-02-26T20:58:35.349Z,12.11
2019-02-26T21:01:04.642Z,12.03
2019-02-26T21:03:34.005Z,11.83
2019-02-26T21:06:03.592Z,11.57
2019-02-26T21:08:32.942Z,11.73
2019-02-26T21:11:02.329Z,11.57
2019-02-26T21:13:34.651Z,11.61
2019-02-26T21:16:02.799Z,11.91
2019-02-26T21:18:32.105Z,11.47
2019-02-26T21:21:01.514Z,11.35
2019-02-26T21:23:32.516Z,11.42
2019-02-26T21:26:01.967Z,11.20
2019-02-26T21:28:33.308Z,11.07
2019-02-26T21:31:02.353Z,11.14
2019-02-26T21:33:31.711Z,11.30
2019-02-26T21:36:01.031Z,11.36
2019-02-26T21:38:30.327Z,11.33
2019-02-26T21:40:59.682Z,10.80
2019-02-26T21:43:28.997Z,10.80
2019-02-26T21:45:58.432Z,10.80
2019-02-26T21:48:27.677Z,10.77
2019-02-26T21:50:57.002Z,10.89
2019-02-26T21:53:26.277Z,10.77
2019-02-26T21:55:55.774Z,10.87
2019-02-26T21:58:26.834Z,10.58
2019-02-26T22:00:56.134Z,10.33
2019-02-26T22:03:25.407Z,10.35
2019-02-26T22:05:54.807Z,10.40
2019-02-26T22:08:24.718Z,10.50
2019-02-26T22:10:54.617Z,10.53
2019-02-26T22:13:23.967Z,10.35
2019-02-26T22:15:53.275Z,10.29
2019-02-26T22:18:22.599Z,10.32
2019-02-26T22:20:51.996Z,10.29
2019-02-26T22:23:21.382Z,10.36
2019-02-26T22:25:52.533Z,9.99
2019-02-26T22:28:23.079Z,10.17
2019-02-26T22:30:55.713Z,10.05
2019-02-26T22:33:23.549Z,10.00
2019-02-26T22:35:52.871Z,10.05
2019-02-26T22:38:22.282Z,9.76
2019-02-26T22:40:51.543Z,9.61
2019-02-26T22:43:20.975Z,9.77
2019-02-26T22:45:50.215Z,9.71
2019-02-26T22:48:19.556Z,9.63
2019-02-26T22:50:48.807Z,9.58
2019-02-26T22:53:18.076Z,9.67
2019-02-26T22:55:49.592Z,9.55
2019-02-26T22:58:18.354Z,9.43
2019-02-26T23:01:30.329Z,9.38
2019-02-26T23:03:53.530Z,9.58
2019-02-26T23:06:22.783Z,9.36
2019-02-26T23:08:52.200Z,9.14
2019-02-26T23:11:21.896Z,9.15
2019-02-26T23:13:51.227Z,9.10
2019-02-26T23:16:20.512Z,9.25
2019-02-26T23:18:49.809Z,9.17
2019-02-26T23:21:19.416Z,8.81
2019-02-26T23:23:48.874Z,8.74
2019-02-26T23:26:18.169Z,8.80
2019-02-26T23:28:47.430Z,8.77
2019-02-26T23:31:17.586Z,8.61
2019-02-26T23:33:48.587Z,8.55
2019-02-26T23:36:17.959Z,8.57
2019-02-26T23:38:47.948Z,8.68
2019-02-26T23:41:17.216Z,8.96
2019-02-26T23:43:46.490Z,8.72
2019-02-26T23:46:15.759Z,8.61
2019-02-26T23:48:45.019Z,8.48
2019-02-26T23:51:14.318Z,8.47
2019-02-26T23:53:43.555Z,8.47
2019-02-26T23:56:12.888Z,8.45
2019-02-26T23:58:42.153Z,8.50
